CheckWX is a tool to help pilots better visualize weather data.  It is not intended as a substitute for an official pre-flight weather briefing.

20:12:49 UTC

KETB METAR
West Bend Municipal Airport
West Bend, Wisconsin, USA
Current

18 mins ago

KETB 261955Z AUTO 28004KT 10SM CLR 27/11 A3005 RMK AO2
Observed
Jun-26 @ 19:55 UTC
Wind
  • 280° at 4 KTS
Visibility
10 SM
Flight Rules
VFR
Cloud Levels
  • Clear skies
Temperature
27°C / 81°F
Dewpoint
11°C / 52°F
Humidity
37%
Altimeter
30.05" Hg
Pressure
1017.62 hPa
Previous

38 mins ago

KETB 261935Z AUTO 26005KT 10SM SCT060 26/10 A3005 RMK AO2
Observed
Jun-26 @ 19:35 UTC
Wind
  • 260° at 5 KTS
Visibility
10 SM
Flight Rules
VFR
Cloud Levels
  • Scattered at 6,000' AGL
Temperature
26°C / 79°F
Dewpoint
10°C / 50°F
Humidity
37%
Altimeter
30.05" Hg
Pressure
1017.62 hPa
Previous

58 mins ago

KETB 261915Z AUTO 29005KT 10SM CLR 27/11 A3005 RMK AO2
Observed
Jun-26 @ 19:15 UTC
Wind
  • 290° at 5 KTS
Visibility
10 SM
Flight Rules
VFR
Cloud Levels
  • Clear skies
Temperature
27°C / 81°F
Dewpoint
11°C / 52°F
Humidity
37%
Altimeter
30.05" Hg
Pressure
1017.62 hPa